createdAt,value
2019-05-01T00:00:00.409Z,42.15
2019-05-01T00:01:05.291Z,37.35
2019-05-01T00:02:01.521Z,39.85
2019-05-01T00:03:08.014Z,38.45
2019-05-01T00:04:25.600Z,39.80
2019-05-01T00:05:16.585Z,44.65
2019-05-01T00:06:03.034Z,42.00
2019-05-01T00:06:51.736Z,38.98
2019-05-01T00:07:38.042Z,40.33
2019-05-01T00:08:24.692Z,41.55
2019-05-01T00:09:12.426Z,40.12
2019-05-01T00:09:59.373Z,43.92
2019-05-01T00:10:45.610Z,45.12
2019-05-01T00:11:31.793Z,45.60
2019-05-01T00:12:26.245Z,44.08
2019-05-01T00:13:14.252Z,38.08
2019-05-01T00:14:00.303Z,48.10
2019-05-01T00:14:46.857Z,39.63
2019-05-01T00:15:35.221Z,40.73
2019-05-01T00:16:21.733Z,43.42
2019-05-01T00:17:07.691Z,42.43
2019-05-01T00:17:54.248Z,47.00
2019-05-01T00:18:42.454Z,38.58
2019-05-01T00:19:28.723Z,42.98
2019-05-01T00:20:15.735Z,41.48
2019-05-01T00:21:02.233Z,40.83
2019-05-01T00:21:48.772Z,40.10
2019-05-01T00:22:35.110Z,38.38
2019-05-01T00:23:21.457Z,37.50
2019-05-01T00:24:07.632Z,42.50
2019-05-01T00:24:54.908Z,43.42
2019-05-01T00:25:41.087Z,45.10
2019-05-01T00:26:27.314Z,44.73
2019-05-01T00:27:13.447Z,38.63
2019-05-01T00:27:59.225Z,44.30
2019-05-01T00:28:45.865Z,45.28
2019-05-01T00:29:32.418Z,41.10
2019-05-01T00:30:29.695Z,41.15
2019-05-01T00:31:10.590Z,43.08
2019-05-01T00:31:57.035Z,40.85
2019-05-01T00:32:43.636Z,41.50
2019-05-01T00:33:30.368Z,39.00
2019-05-01T00:34:16.612Z,40.92
2019-05-01T00:35:03.453Z,38.73
2019-05-01T00:35:49.477Z,43.23
2019-05-01T00:36:36.035Z,42.95
2019-05-01T00:37:23.455Z,40.03
2019-05-01T00:38:11.361Z,45.38
2019-05-01T00:38:58.894Z,44.35
2019-05-01T00:39:45.345Z,42.08
2019-05-01T00:40:31.759Z,46.65
2019-05-01T00:41:18.087Z,45.15
2019-05-01T00:42:04.655Z,41.63
2019-05-01T00:42:51.148Z,39.35
2019-05-01T00:43:37.533Z,39.95
2019-05-01T00:44:24.208Z,37.40
2019-05-01T00:45:10.825Z,42.20
2019-05-01T00:45:57.336Z,43.80
2019-05-01T00:46:43.911Z,43.30
2019-05-01T00:47:30.737Z,41.48
2019-05-01T00:48:17.204Z,41.80
2019-05-01T00:49:03.752Z,41.73
2019-05-01T00:49:51.028Z,43.92
2019-05-01T00:50:38.073Z,42.58
2019-05-01T00:51:24.482Z,41.98
2019-05-01T00:52:10.716Z,46.40
2019-05-01T00:52:57.479Z,48.38
2019-05-01T00:53:44.146Z,41.45
2019-05-01T00:54:32.603Z,45.15
2019-05-01T00:55:37.574Z,45.75
2019-05-01T00:56:42.495Z,49.75
2019-05-01T00:57:40.837Z,41.15
2019-05-01T00:58:44.563Z,40.90
2019-05-01T00:59:58.789Z,41.45
2019-05-01T01:00:53.211Z,42.17
2019-05-01T01:01:57.149Z,42.33
2019-05-01T01:02:46.934Z,41.85
2019-05-01T01:03:33.370Z,45.55
2019-05-01T01:04:19.796Z,44.40
2019-05-01T01:05:06.149Z,46.25
2019-05-01T01:05:51.946Z,49.58
2019-05-01T01:06:38.158Z,53.23
2019-05-01T01:07:24.379Z,51.85
2019-05-01T01:08:10.475Z,49.58
2019-05-01T01:08:56.834Z,47.78
2019-05-01T01:09:43.047Z,44.30
2019-05-01T01:10:29.481Z,48.45
2019-05-01T01:11:15.550Z,43.35
2019-05-01T01:12:01.672Z,46.98
2019-05-01T01:12:47.898Z,42.00
2019-05-01T01:13:33.655Z,50.95
2019-05-01T01:14:20.055Z,44.13
2019-05-01T01:15:06.576Z,45.20
2019-05-01T01:15:52.752Z,46.28
2019-05-01T01:16:39.154Z,49.88
2019-05-01T01:17:25.439Z,46.23
2019-05-01T01:18:11.753Z,49.83
2019-05-01T01:18:58.091Z,55.52
2019-05-01T01:19:44.435Z,48.90
2019-05-01T01:20:30.585Z,46.02
2019-05-01T01:21:19.553Z,47.13
2019-05-01T01:22:05.975Z,46.15
2019-05-01T01:22:52.195Z,46.10
2019-05-01T01:23:38.375Z,43.70
2019-05-01T01:24:24.682Z,47.25
2019-05-01T01:25:11.475Z,44.85
2019-05-01T01:25:57.768Z,45.98
2019-05-01T01:26:43.768Z,45.43
2019-05-01T01:27:29.912Z,44.27
2019-05-01T01:28:16.475Z,50.38
2019-05-01T01:29:02.757Z,49.35
2019-05-01T01:29:48.767Z,48.95
2019-05-01T01:30:35.048Z,53.98
2019-05-01T01:31:21.346Z,47.13
2019-05-01T01:32:07.643Z,44.65
2019-05-01T01:32:53.711Z,46.90
2019-05-01T01:33:39.858Z,47.50
2019-05-01T01:34:25.980Z,44.85
2019-05-01T01:35:12.183Z,48.83
2019-05-01T01:35:58.504Z,45.03
2019-05-01T01:36:44.999Z,46.35
2019-05-01T01:37:31.164Z,47.27
2019-05-01T01:38:17.566Z,46.58
2019-05-01T01:39:05.535Z,47.43
2019-05-01T01:39:51.561Z,51.98
2019-05-01T01:40:38.107Z,52.10
2019-05-01T01:41:24.223Z,48.70
2019-05-01T01:42:10.376Z,53.40
2019-05-01T01:42:59.412Z,52.45
2019-05-01T01:44:04.587Z,50.52
2019-05-01T01:45:11.141Z,48.50
2019-05-01T01:45:57.868Z,49.15
2019-05-01T01:46:44.550Z,51.92
2019-05-01T01:47:30.359Z,48.58
2019-05-01T01:48:16.899Z,50.03
2019-05-01T01:49:03.085Z,53.20
2019-05-01T01:49:49.135Z,56.08
2019-05-01T01:50:35.771Z,48.02
2019-05-01T01:51:22.058Z,49.33
2019-05-01T01:52:08.076Z,61.18
2019-05-01T01:52:54.012Z,54.98
2019-05-01T01:53:40.930Z,53.15
2019-05-01T01:54:27.502Z,47.50
2019-05-01T01:55:14.256Z,49.30
2019-05-01T01:56:00.623Z,50.73
2019-05-01T01:56:46.963Z,49.00
2019-05-01T01:57:33.067Z,46.92
2019-05-01T01:58:20.329Z,48.75
2019-05-01T01:59:06.742Z,56.55
2019-05-01T01:59:53.214Z,50.92
2019-05-01T02:00:52.727Z,50.70
2019-05-01T02:02:16.148Z,55.23
2019-05-01T02:03:03.952Z,50.40
2019-05-01T02:03:53.177Z,56.75
2019-05-01T02:05:04.705Z,53.20
2019-05-01T02:05:50.712Z,58.90
2019-05-01T02:06:36.834Z,54.93
2019-05-01T02:07:23.239Z,58.28
2019-05-01T02:08:09.431Z,51.60
2019-05-01T02:08:56.864Z,61.98
2019-05-01T02:09:42.911Z,64.70
2019-05-01T02:10:42.177Z,60.83
2019-05-01T02:11:17.048Z,61.10
2019-05-01T02:12:03.020Z,58.68
2019-05-01T02:12:49.390Z,62.58
2019-05-01T02:13:35.729Z,57.58
2019-05-01T02:14:22.204Z,58.40
2019-05-01T02:15:08.730Z,58.25
2019-05-01T02:15:54.844Z,52.90
2019-05-01T02:17:39.015Z,56.58
2019-05-01T02:18:24.865Z,55.43
2019-05-01T02:19:11.170Z,63.87
2019-05-01T02:19:57.340Z,63.63
2019-05-01T02:20:44.101Z,65.90
2019-05-01T02:24:32.588Z,61.75
2019-05-01T02:25:19.599Z,51.23
2019-05-01T02:26:06.711Z,54.60
2019-05-01T02:26:54.539Z,58.10
2019-05-01T02:27:49.523Z,57.43
2019-05-01T02:28:42.854Z,64.42
2019-05-01T02:29:34.070Z,66.15
2019-05-01T02:30:21.320Z,65.92
2019-05-01T02:31:28.445Z,64.05
2019-05-01T02:32:10.955Z,62.65
2019-05-01T02:32:58.023Z,58.25
2019-05-01T02:33:45.690Z,62.48
2019-05-01T02:34:34.772Z,56.00
2019-05-01T02:35:22.113Z,60.08
2019-05-01T02:36:10.042Z,56.77
2019-05-01T02:36:58.665Z,59.05
2019-05-01T02:37:45.852Z,59.53
2019-05-01T02:38:33.411Z,54.25
2019-05-01T02:39:20.687Z,59.35
2019-05-01T02:40:48.016Z,61.15
2019-05-01T02:41:36.271Z,65.52
2019-05-01T02:42:26.250Z,67.80
2019-05-01T02:43:15.205Z,61.63
2019-05-01T02:44:08.855Z,64.05
2019-05-01T02:44:57.502Z,58.40
2019-05-01T02:45:46.675Z,54.50
2019-05-01T02:46:35.273Z,53.83
2019-05-01T02:47:25.808Z,51.60
2019-05-01T02:48:13.911Z,53.78
2019-05-01T02:49:07.001Z,58.75
2019-05-01T02:49:58.844Z,53.45
2019-05-01T02:50:48.480Z,53.30
2019-05-01T02:51:37.764Z,61.28
2019-05-01T02:52:27.661Z,63.60
2019-05-01T02:53:14.720Z,64.25
2019-05-01T02:54:00.864Z,62.95
2019-05-01T02:54:48.054Z,58.92
2019-05-01T02:55:40.255Z,59.90
2019-05-01T02:56:35.320Z,57.55
2019-05-01T02:57:23.265Z,62.43
2019-05-01T02:58:09.476Z,54.05
2019-05-01T02:58:56.378Z,51.30
2019-05-01T02:59:46.180Z,50.92
2019-05-01T03:00:32.707Z,50.58
2019-05-01T03:01:18.790Z,49.33
2019-05-01T03:02:04.963Z,49.73
2019-05-01T03:02:51.084Z,66.35
2019-05-01T03:03:38.064Z,67.22
2019-05-01T03:04:24.971Z,63.78
2019-05-01T03:05:11.873Z,63.30
2019-05-01T03:05:58.282Z,68.28
2019-05-01T03:06:45.775Z,57.23
2019-05-01T03:07:33.608Z,65.17
2019-05-01T03:08:19.948Z,54.13
2019-05-01T03:09:07.845Z,56.40
2019-05-01T03:09:54.095Z,57.10
2019-05-01T03:10:40.615Z,57.93
2019-05-01T03:11:27.732Z,62.83
2019-05-01T03:12:17.516Z,61.37
2019-05-01T03:13:04.723Z,57.43
2019-05-01T03:13:54.240Z,53.55
2019-05-01T03:14:43.858Z,51.73
2019-05-01T03:15:33.159Z,50.83
2019-05-01T03:16:20.785Z,48.87
2019-05-01T03:17:28.504Z,59.18
2019-05-01T03:18:23.719Z,57.50
2019-05-01T03:19:18.504Z,52.35
2019-05-01T03:20:16.648Z,52.30
2019-05-01T03:21:34.879Z,54.20
2019-05-01T03:22:30.142Z,57.33
2019-05-01T03:23:25.748Z,53.95
2019-05-01T03:24:15.461Z,50.48
2019-05-01T03:25:01.939Z,55.40
2019-05-01T03:25:48.470Z,49.33
2019-05-01T03:26:34.916Z,58.55
2019-05-01T03:27:21.096Z,56.30
2019-05-01T03:28:07.715Z,62.35
2019-05-01T03:28:54.209Z,63.80
2019-05-01T03:29:42.555Z,60.90
2019-05-01T03:30:29.127Z,48.13
2019-05-01T03:31:16.356Z,52.08
2019-05-01T03:32:16.970Z,53.05
2019-05-01T03:32:51.689Z,56.05
2019-05-01T03:33:38.955Z,55.65
2019-05-01T03:34:26.146Z,49.93
2019-05-01T03:35:12.584Z,53.48
2019-05-01T03:35:59.207Z,52.48
2019-05-01T03:36:45.690Z,51.68
2019-05-01T03:37:32.428Z,50.17
2019-05-01T03:38:19.921Z,54.08
2019-05-01T03:39:06.588Z,59.15
2019-05-01T03:39:53.033Z,62.48
2019-05-01T03:40:40.808Z,61.80
2019-05-01T03:41:27.569Z,54.27
2019-05-01T03:42:14.186Z,52.30
2019-05-01T03:43:01.008Z,54.13
2019-05-01T03:43:47.672Z,54.38
2019-05-01T03:44:34.321Z,53.40
2019-05-01T03:45:21.163Z,53.63
2019-05-01T03:46:07.904Z,48.30
2019-05-01T03:46:54.179Z,52.58
2019-05-01T03:47:40.328Z,54.48
2019-05-01T03:48:29.400Z,62.88
2019-05-01T03:49:15.750Z,74.50
2019-05-01T03:50:01.993Z,76.70
2019-05-01T03:50:48.309Z,83.78
2019-05-01T03:51:34.660Z,89.62
2019-05-01T03:52:21.580Z,87.57
2019-05-01T03:53:08.255Z,80.45
2019-05-01T03:53:54.193Z,107.63
2019-05-01T03:54:40.505Z,97.20
2019-05-01T03:55:26.879Z,96.22
2019-05-01T03:56:13.231Z,101.90
2019-05-01T03:56:59.434Z,98.55
2019-05-01T03:57:45.829Z,99.60
2019-05-01T03:58:32.806Z,107.32
2019-05-01T03:59:19.240Z,105.45
2019-05-01T04:00:06.931Z,106.72
2019-05-01T04:01:18.622Z,102.50
2019-05-01T04:02:33.463Z,97.40
2019-05-01T04:03:20.454Z,100.95
2019-05-01T04:04:09.739Z,95.42
2019-05-01T04:04:55.700Z,99.42
2019-05-01T04:05:42.496Z,96.57
2019-05-01T04:06:29.340Z,97.10
2019-05-01T04:07:15.697Z,101.82
2019-05-01T04:08:01.946Z,94.97
2019-05-01T04:08:48.792Z,91.42
2019-05-01T04:09:35.077Z,91.40
2019-05-01T04:10:21.138Z,112.50
2019-05-01T04:11:07.391Z,91.53
2019-05-01T04:11:53.657Z,83.12
2019-05-01T04:12:40.159Z,84.00
2019-05-01T04:13:29.157Z,80.42
2019-05-01T04:14:15.309Z,82.27
2019-05-01T04:15:19.861Z,81.70
2019-05-01T04:16:06.783Z,91.70
2019-05-01T04:17:05.453Z,93.17
2019-05-01T04:17:54.275Z,82.05
2019-05-01T04:18:40.455Z,83.67
2019-05-01T04:19:26.783Z,83.05
2019-05-01T04:20:13.272Z,85.60
2019-05-01T04:21:00.145Z,89.35
2019-05-01T04:22:07.981Z,82.17
2019-05-01T04:22:55.041Z,72.35
2019-05-01T04:23:42.886Z,76.20
2019-05-01T04:24:29.052Z,82.12
2019-05-01T04:25:16.772Z,75.67
2019-05-01T04:26:03.565Z,71.12
2019-05-01T04:26:50.380Z,71.77
2019-05-01T04:27:39.018Z,66.65
2019-05-01T04:28:47.670Z,64.58
2019-05-01T04:29:39.731Z,65.52
2019-05-01T04:30:33.695Z,63.55
2019-05-01T04:31:26.123Z,62.50
2019-05-01T04:32:17.238Z,63.98
2019-05-01T04:33:05.669Z,62.30
2019-05-01T04:33:52.503Z,69.27
2019-05-01T04:34:47.909Z,64.05
2019-05-01T04:35:50.366Z,69.82
2019-05-01T04:36:38.878Z,68.02
2019-05-01T04:37:25.416Z,63.95
2019-05-01T04:38:11.611Z,64.15
2019-05-01T04:38:58.548Z,67.90
2019-05-01T04:39:44.569Z,71.28
2019-05-01T04:40:31.151Z,69.27
2019-05-01T04:41:17.291Z,72.82
2019-05-01T04:42:03.747Z,72.70
2019-05-01T04:42:50.295Z,93.78
2019-05-01T04:43:36.030Z,79.20
2019-05-01T04:44:22.391Z,89.50
2019-05-01T04:45:08.458Z,90.50
2019-05-01T04:45:55.442Z,94.40
2019-05-01T04:46:41.608Z,80.50
2019-05-01T04:47:28.049Z,92.37
2019-05-01T04:48:14.060Z,96.63
2019-05-01T04:49:00.433Z,107.00
2019-05-01T04:49:46.755Z,101.78
2019-05-01T04:50:32.966Z,109.12
2019-05-01T04:51:19.158Z,97.05
2019-05-01T04:52:05.270Z,101.12
2019-05-01T04:52:52.054Z,98.85
2019-05-01T04:53:38.141Z,100.42
2019-05-01T04:54:24.261Z,104.07
2019-05-01T04:55:10.472Z,100.82
2019-05-01T04:55:57.239Z,99.40
2019-05-01T04:56:43.694Z,105.52
2019-05-01T04:57:29.807Z,105.10
2019-05-01T04:58:16.264Z,112.28
2019-05-01T04:59:02.787Z,105.30
2019-05-01T04:59:48.871Z,105.20
2019-05-01T05:00:35.411Z,112.12
2019-05-01T05:01:21.685Z,123.00
2019-05-01T05:02:09.812Z,108.52
2019-05-01T05:03:04.922Z,117.05
2019-05-01T05:03:50.584Z,106.78
2019-05-01T05:04:37.499Z,113.75
2019-05-01T05:05:24.036Z,108.15
2019-05-01T05:06:10.802Z,108.83
2019-05-01T05:06:57.259Z,121.80
2019-05-01T05:07:44.001Z,122.70
2019-05-01T05:08:30.528Z,113.00
2019-05-01T05:09:16.515Z,121.50
2019-05-01T05:10:03.059Z,123.85
2019-05-01T05:10:50.173Z,137.20
2019-05-01T05:11:47.781Z,133.37
2019-05-01T05:12:40.584Z,130.70
2019-05-01T05:13:30.988Z,133.67
2019-05-01T05:14:20.571Z,132.70
2019-05-01T05:15:32.606Z,132.40
2019-05-01T05:16:38.891Z,129.63
2019-05-01T05:17:25.637Z,178.27
2019-05-01T05:18:12.019Z,134.20
2019-05-01T05:19:00.704Z,128.65
2019-05-01T05:19:47.282Z,126.18
2019-05-01T05:20:34.116Z,130.85
2019-05-01T05:21:20.287Z,128.27
2019-05-01T05:22:07.043Z,132.35
2019-05-01T05:22:53.719Z,130.45
2019-05-01T05:23:40.073Z,130.05
2019-05-01T05:24:26.142Z,132.52
2019-05-01T05:25:12.321Z,123.70
2019-05-01T05:25:58.864Z,123.67
2019-05-01T05:26:45.050Z,122.20
2019-05-01T05:27:32.698Z,125.38
2019-05-01T05:28:20.196Z,123.20
2019-05-01T05:29:06.587Z,124.47
2019-05-01T05:29:55.925Z,112.88
2019-05-01T05:30:44.524Z,118.60
2019-05-01T05:31:31.564Z,119.30
2019-05-01T05:32:19.735Z,105.75
2019-05-01T05:33:18.166Z,110.68
2019-05-01T05:33:59.203Z,97.67
2019-05-01T05:34:46.711Z,96.95
2019-05-01T05:35:36.055Z,98.87
2019-05-01T05:36:25.136Z,99.07
2019-05-01T05:37:18.274Z,103.87
2019-05-01T05:38:30.120Z,104.03
2019-05-01T05:39:36.719Z,96.75
2019-05-01T05:40:23.029Z,90.53
2019-05-01T05:41:09.892Z,98.70
2019-05-01T05:41:56.758Z,116.70
2019-05-01T05:42:42.912Z,132.15
2019-05-01T05:43:28.972Z,98.55
2019-05-01T05:44:14.708Z,90.77
2019-05-01T05:45:01.107Z,89.58
2019-05-01T05:45:46.976Z,94.95
2019-05-01T05:46:33.167Z,100.78
2019-05-01T05:47:19.334Z,98.67
2019-05-01T05:48:05.559Z,86.60
2019-05-01T05:48:51.619Z,112.12
2019-05-01T05:49:38.461Z,126.38
2019-05-01T05:50:26.869Z,131.97
2019-05-01T05:51:44.295Z,110.92
2019-05-01T05:52:37.299Z,119.67
2019-05-01T05:53:27.455Z,97.95
2019-05-01T05:54:38.764Z,95.47
2019-05-01T05:55:40.303Z,88.87
2019-05-01T05:56:34.833Z,115.80
2019-05-01T05:57:30.000Z,112.32
2019-05-01T05:58:28.458Z,99.70
2019-05-01T05:59:19.501Z,124.80
2019-05-01T06:00:26.045Z,103.50
2019-05-01T06:01:30.820Z,115.03
2019-05-01T06:02:31.422Z,103.62
2019-05-01T06:03:37.350Z,92.80
2019-05-01T06:04:44.186Z,91.00
2019-05-01T06:05:48.514Z,88.70
2019-05-01T06:06:50.838Z,79.47
2019-05-01T06:08:03.063Z,98.58
2019-05-01T06:08:53.752Z,96.25
2019-05-01T06:09:48.506Z,93.50
2019-05-01T06:11:01.063Z,76.72
2019-05-01T06:12:09.004Z,81.25
2019-05-01T06:13:21.834Z,85.10
2019-05-01T06:14:18.069Z,83.70
2019-05-01T06:15:29.776Z,79.90
2019-05-01T06:16:36.559Z,87.92
2019-05-01T06:17:30.488Z,81.22
2019-05-01T06:18:39.403Z,77.53
2019-05-01T06:19:45.915Z,86.40
2019-05-01T06:20:38.799Z,83.03
2019-05-01T06:21:34.638Z,88.95
2019-05-01T06:22:35.192Z,86.00
2019-05-01T06:23:43.047Z,88.82
2019-05-01T06:24:35.697Z,102.78
2019-05-01T06:25:34.043Z,108.78
2019-05-01T06:26:37.235Z,93.12
2019-05-01T06:27:21.146Z,84.70
2019-05-01T06:28:07.621Z,90.62
2019-05-01T06:28:55.989Z,103.95
2019-05-01T06:29:41.715Z,107.45
2019-05-01T06:30:27.919Z,112.32
2019-05-01T06:31:23.111Z,120.13
2019-05-01T06:32:06.258Z,120.85
2019-05-01T06:32:52.586Z,117.57
2019-05-01T06:33:44.344Z,115.75
2019-05-01T06:34:28.684Z,125.25
2019-05-01T06:35:14.420Z,137.32
2019-05-01T06:36:01.093Z,139.90
2019-05-01T06:36:49.701Z,151.45
2019-05-01T06:38:02.357Z,130.67
2019-05-01T06:40:58.065Z,159.67
2019-05-01T06:41:44.442Z,134.43
2019-05-01T06:42:30.800Z,134.85
2019-05-01T06:44:02.380Z,133.70
2019-05-01T06:44:52.186Z,136.88
2019-05-01T06:45:40.994Z,134.10
2019-05-01T06:46:40.772Z,132.47
2019-05-01T06:47:43.312Z,135.45
2019-05-01T06:48:30.186Z,130.03
2019-05-01T06:49:38.664Z,139.45
2019-05-01T06:50:32.229Z,151.65
2019-05-01T06:51:37.127Z,144.57
2019-05-01T06:52:28.911Z,127.78
2019-05-01T06:53:12.736Z,134.60
2019-05-01T06:53:58.775Z,130.00
2019-05-01T06:54:47.801Z,186.40
2019-05-01T06:55:33.131Z,148.30
2019-05-01T06:56:19.137Z,135.70
2019-05-01T06:57:05.858Z,143.78
2019-05-01T06:57:52.064Z,144.25
2019-05-01T06:58:38.072Z,144.85
2019-05-01T06:59:26.206Z,144.47
2019-05-01T07:00:16.582Z,137.50
2019-05-01T07:01:02.758Z,149.05
2019-05-01T07:01:53.215Z,145.47
2019-05-01T07:02:39.892Z,140.95
2019-05-01T07:03:26.255Z,149.10
2019-05-01T07:04:14.091Z,144.28
2019-05-01T07:05:01.526Z,137.80
2019-05-01T07:05:49.003Z,143.57
2019-05-01T07:06:35.938Z,159.25
2019-05-01T07:07:25.981Z,140.50
2019-05-01T07:08:23.795Z,155.60
2019-05-01T07:08:59.423Z,143.60
2019-05-01T07:09:49.343Z,150.22
2019-05-01T07:10:43.709Z,146.72
2019-05-01T07:11:23.749Z,146.25
2019-05-01T07:12:14.537Z,151.72
2019-05-01T07:13:04.848Z,138.32
2019-05-01T07:13:50.796Z,143.25
2019-05-01T07:14:37.180Z,148.77
2019-05-01T07:15:26.910Z,157.45
2019-05-01T07:16:10.910Z,139.65
2019-05-01T07:16:57.099Z,146.53
2019-05-01T07:17:43.911Z,149.68
2019-05-01T07:18:30.918Z,155.07
2019-05-01T07:19:17.419Z,141.85
2019-05-01T07:20:16.927Z,148.85
2019-05-01T07:21:04.071Z,174.90
2019-05-01T07:21:50.072Z,152.30
2019-05-01T07:22:37.042Z,202.57
2019-05-01T07:23:24.177Z,185.80
2019-05-01T07:24:10.192Z,206.38
2019-05-01T07:24:59.091Z,166.85
2019-05-01T07:25:44.641Z,169.60
2019-05-01T07:26:30.680Z,176.72
2019-05-01T07:27:18.806Z,194.35
2019-05-01T07:28:05.136Z,165.45
2019-05-01T07:28:54.186Z,165.20
2019-05-01T07:29:44.983Z,191.62
2019-05-01T07:30:45.194Z,187.30
2019-05-01T07:31:32.648Z,199.27
2019-05-01T07:32:18.710Z,176.97
2019-05-01T07:33:05.069Z,182.47
2019-05-01T07:33:52.365Z,184.40
2019-05-01T07:34:38.876Z,181.30
2019-05-01T07:35:25.572Z,214.70
2019-05-01T07:36:15.458Z,204.63
2019-05-01T07:37:00.341Z,239.72
2019-05-01T07:37:46.571Z,222.52
2019-05-01T07:38:33.004Z,184.05
2019-05-01T07:39:21.791Z,184.05
2019-05-01T07:40:08.569Z,181.65
2019-05-01T07:40:58.796Z,186.52
2019-05-01T07:41:42.947Z,180.10
2019-05-01T07:42:29.872Z,179.75
2019-05-01T07:43:44.578Z,203.60
2019-05-01T07:44:37.536Z,199.62
2019-05-01T07:45:46.176Z,169.72
2019-05-01T07:46:48.909Z,170.75
2019-05-01T07:47:41.633Z,179.32
2019-05-01T07:48:36.163Z,194.70
2019-05-01T07:49:41.521Z,211.65
2019-05-01T07:50:31.607Z,193.25
2019-05-01T07:51:16.018Z,182.50
2019-05-01T07:52:03.050Z,174.75
2019-05-01T07:52:52.209Z,163.50
2019-05-01T07:53:38.166Z,181.52
2019-05-01T07:54:24.479Z,173.53
2019-05-01T07:55:13.032Z,171.07
2019-05-01T07:55:59.165Z,202.68
2019-05-01T07:56:46.138Z,168.62
2019-05-01T07:57:34.223Z,169.97
2019-05-01T07:58:21.553Z,165.50
2019-05-01T07:59:08.119Z,173.10
2019-05-01T07:59:58.397Z,178.35
2019-05-01T08:00:48.275Z,176.70
2019-05-01T08:01:49.822Z,172.15
2019-05-01T08:02:34.885Z,172.55
2019-05-01T08:03:21.352Z,169.00
2019-05-01T08:04:07.642Z,167.05
2019-05-01T08:04:53.863Z,169.55
2019-05-01T08:05:40.808Z,159.67
2019-05-01T08:06:28.186Z,182.95
2019-05-01T08:07:14.679Z,170.53
2019-05-01T08:08:02.922Z,161.97
2019-05-01T08:08:48.739Z,166.90
2019-05-01T08:09:34.839Z,171.55
2019-05-01T08:10:20.981Z,169.32
2019-05-01T08:11:10.388Z,169.07
2019-05-01T08:11:56.416Z,166.77
2019-05-01T08:12:45.045Z,192.43
2019-05-01T08:13:30.669Z,182.32
2019-05-01T08:14:18.616Z,177.12
2019-05-01T08:15:07.055Z,168.78
2019-05-01T08:15:53.061Z,172.72
2019-05-01T08:16:42.521Z,170.50
2019-05-01T08:17:29.421Z,190.80
2019-05-01T08:18:24.097Z,186.95
2019-05-01T08:19:39.374Z,197.80
2019-05-01T08:20:29.060Z,175.12
2019-05-01T08:21:57.052Z,164.82
2019-05-01T08:22:41.671Z,161.22
2019-05-01T08:23:28.312Z,166.77
2019-05-01T08:24:17.883Z,150.00
2019-05-01T08:25:04.912Z,205.00
2019-05-01T08:25:51.454Z,181.20
2019-05-01T08:26:39.731Z,173.28
2019-05-01T08:27:56.500Z,171.65
2019-05-01T08:29:06.840Z,170.87
2019-05-01T08:30:17.387Z,168.90
2019-05-01T08:31:23.034Z,177.25
2019-05-01T08:32:28.811Z,166.75
2019-05-01T08:33:33.454Z,151.00
2019-05-01T08:34:25.431Z,154.45
2019-05-01T08:35:12.069Z,175.40
2019-05-01T08:35:58.179Z,200.62
2019-05-01T08:36:47.202Z,206.70
2019-05-01T08:37:32.754Z,205.20
2019-05-01T08:38:19.013Z,166.20
2019-05-01T08:39:09.244Z,159.10
2019-05-01T08:39:54.403Z,210.32
2019-05-01T08:40:40.969Z,170.35
2019-05-01T08:41:31.828Z,169.13
2019-05-01T08:42:17.242Z,162.15
2019-05-01T08:43:04.922Z,160.00
2019-05-01T08:43:53.913Z,174.62
2019-05-01T08:44:59.845Z,197.50
2019-05-01T08:46:06.504Z,158.12
2019-05-01T08:47:01.869Z,156.70
2019-05-01T08:47:56.712Z,169.93
2019-05-01T08:48:51.820Z,163.77
2019-05-01T08:49:50.640Z,165.75
2019-05-01T08:50:36.419Z,158.72
2019-05-01T08:51:22.729Z,162.60
2019-05-01T08:52:12.547Z,160.85
2019-05-01T08:52:56.594Z,166.20
2019-05-01T08:53:42.936Z,184.10
2019-05-01T08:54:33.444Z,155.07
2019-05-01T08:55:16.836Z,165.30
2019-05-01T08:56:03.013Z,153.83
2019-05-01T08:56:52.938Z,152.80
2019-05-01T08:57:39.574Z,178.62
2019-05-01T08:58:25.256Z,163.32
2019-05-01T08:59:12.063Z,185.03
2019-05-01T09:00:00.339Z,170.77
2019-05-01T09:00:46.643Z,170.57
2019-05-01T09:01:32.894Z,180.50
2019-05-01T09:02:19.302Z,188.78
2019-05-01T09:03:08.591Z,164.97
2019-05-01T09:03:54.149Z,190.68
2019-05-01T09:04:41.350Z,194.95
2019-05-01T09:05:29.984Z,180.95
2019-05-01T09:06:19.429Z,188.57
2019-05-01T09:07:06.179Z,171.87
2019-05-01T09:07:55.929Z,170.67
2019-05-01T09:08:42.898Z,163.18
2019-05-01T09:09:29.183Z,164.67
2019-05-01T09:10:17.163Z,166.70
2019-05-01T09:11:03.573Z,182.00
2019-05-01T09:11:49.632Z,156.47
2019-05-01T09:12:35.871Z,148.72
2019-05-01T09:13:23.774Z,161.80
2019-05-01T09:14:09.940Z,166.50
2019-05-01T09:14:56.148Z,186.97
2019-05-01T09:15:43.751Z,159.55
2019-05-01T09:16:30.224Z,161.62
2019-05-01T09:17:16.560Z,163.07
2019-05-01T09:18:02.470Z,163.77
2019-05-01T09:18:48.639Z,157.77
2019-05-01T09:19:34.830Z,148.87
2019-05-01T09:20:22.459Z,158.27
2019-05-01T09:21:08.841Z,160.57
2019-05-01T09:21:54.906Z,171.43
2019-05-01T09:22:42.531Z,154.27
2019-05-01T09:23:29.970Z,156.17
2019-05-01T09:24:16.231Z,148.57
2019-05-01T09:25:02.874Z,155.40
2019-05-01T09:26:14.595Z,160.60
2019-05-01T09:27:10.045Z,165.20
2019-05-01T09:28:06.682Z,172.87
2019-05-01T09:28:56.677Z,164.77
2019-05-01T09:29:46.860Z,173.93
2019-05-01T09:30:37.232Z,162.00
2019-05-01T09:31:24.154Z,155.12
2019-05-01T09:32:11.951Z,165.37
2019-05-01T09:32:57.993Z,155.90
2019-05-01T09:33:44.387Z,161.80
2019-05-01T09:34:30.633Z,161.27
2019-05-01T09:35:19.667Z,162.62
2019-05-01T09:36:05.763Z,177.05
2019-05-01T09:36:52.183Z,159.37
2019-05-01T09:37:38.061Z,158.05
2019-05-01T09:38:23.806Z,156.82
2019-05-01T09:39:12.032Z,144.90
2019-05-01T09:39:58.267Z,162.27
2019-05-01T09:40:44.560Z,167.43
2019-05-01T09:41:38.384Z,166.83
2019-05-01T09:42:23.800Z,167.37
2019-05-01T09:43:10.684Z,163.68
2019-05-01T09:43:57.151Z,171.55
2019-05-01T09:44:43.659Z,158.68
2019-05-01T09:45:30.211Z,165.53
2019-05-01T09:46:16.594Z,160.43
2019-05-01T09:47:04.833Z,169.67
2019-05-01T09:47:51.053Z,157.12
2019-05-01T09:48:37.318Z,157.40
2019-05-01T09:49:23.730Z,169.30
2019-05-01T09:50:09.868Z,152.20
2019-05-01T09:51:07.383Z,158.83
2019-05-01T09:52:01.153Z,150.50
2019-05-01T09:53:03.866Z,156.83
2019-05-01T09:53:58.587Z,147.15
2019-05-01T09:54:51.851Z,160.70
2019-05-01T09:55:57.306Z,155.63
2019-05-01T09:56:43.557Z,165.10
2019-05-01T09:57:29.469Z,165.57
2019-05-01T09:58:15.771Z,164.63
2019-05-01T09:59:01.588Z,161.80
2019-05-01T09:59:47.482Z,152.40
2019-05-01T10:00:33.966Z,157.25
2019-05-01T10:01:24.544Z,155.75
2019-05-01T10:02:09.138Z,144.83
2019-05-01T10:02:55.510Z,154.40
2019-05-01T10:03:44.795Z,162.73
2019-05-01T10:04:31.158Z,155.80
2019-05-01T10:05:28.333Z,154.32
2019-05-01T10:06:05.597Z,159.00
2019-05-01T10:06:52.553Z,157.77
2019-05-01T10:07:39.840Z,166.30
2019-05-01T10:08:26.288Z,149.83
2019-05-01T10:09:16.719Z,155.70
2019-05-01T10:10:00.714Z,147.13
2019-05-01T10:10:47.447Z,140.63
2019-05-01T10:11:36.004Z,158.67
2019-05-01T10:12:21.854Z,145.10
2019-05-01T10:13:08.315Z,141.67
2019-05-01T10:13:58.510Z,144.87
2019-05-01T10:14:43.636Z,146.43
2019-05-01T10:15:29.815Z,141.27
2019-05-01T10:16:16.016Z,142.50
2019-05-01T10:17:02.202Z,146.13
2019-05-01T10:17:48.543Z,150.23
2019-05-01T10:18:34.837Z,143.13
2019-05-01T10:19:21.171Z,146.67
2019-05-01T10:20:07.591Z,143.13
2019-05-01T10:20:53.764Z,157.30
2019-05-01T10:21:40.236Z,153.67
2019-05-01T10:22:26.597Z,147.30
2019-05-01T10:23:15.008Z,148.00
2019-05-01T10:24:00.794Z,138.97
2019-05-01T10:24:47.671Z,145.00
2019-05-01T10:25:37.073Z,146.27
2019-05-01T10:26:25.463Z,131.10
2019-05-01T10:27:17.030Z,144.90
2019-05-01T10:28:11.751Z,139.87
2019-05-01T10:29:17.234Z,136.47
2019-05-01T10:30:26.256Z,136.20
2019-05-01T10:31:31.601Z,136.03
2019-05-01T10:35:51.934Z,139.50
2019-05-01T10:40:57.626Z,142.83
2019-05-01T10:44:03.812Z,131.87
2019-05-01T10:44:50.284Z,133.50
2019-05-01T10:45:36.751Z,131.77
2019-05-01T10:46:23.162Z,137.87